createdAt,value
2019-06-07T00:01:20.811Z,10.40
2019-06-07T00:03:47.929Z,10.50
2019-06-07T00:06:21.355Z,10.50
2019-06-07T00:08:45.103Z,10.60
2019-06-07T00:11:16.507Z,10.60
2019-06-07T00:13:42.066Z,10.60
2019-06-07T00:16:11.909Z,10.60
2019-06-07T00:18:38.948Z,10.60
2019-06-07T00:21:08.937Z,10.60
2019-06-07T00:23:35.888Z,10.60
2019-06-07T00:26:03.690Z,10.60
2019-06-07T00:28:31.417Z,10.60
2019-06-07T00:30:59.066Z,10.50
2019-06-07T00:33:26.605Z,10.50
2019-06-07T00:35:54.168Z,10.50
2019-06-07T00:38:22.081Z,10.40
2019-06-07T00:40:49.945Z,10.40
2019-06-07T00:43:20.373Z,10.30
2019-06-07T00:45:47.125Z,10.30
2019-06-07T00:48:19.656Z,10.30
2019-06-07T00:50:44.263Z,10.30
2019-06-07T00:53:17.176Z,10.20
2019-06-07T00:55:41.197Z,10.20
2019-06-07T00:58:08.887Z,10.20
2019-06-07T01:00:36.890Z,10.10
2019-06-07T01:03:04.523Z,10.00
2019-06-07T01:05:32.082Z,9.90
2019-06-07T01:08:01.603Z,9.80
2019-06-07T01:10:52.156Z,9.80
2019-06-07T01:12:58.682Z,9.70
2019-06-07T01:15:29.273Z,9.70
2019-06-07T01:18:33.572Z,9.70
2019-06-07T01:20:27.583Z,9.60
2019-06-07T01:22:55.118Z,9.60
2019-06-07T01:25:26.127Z,9.60
2019-06-07T01:27:52.582Z,9.60
2019-06-07T01:30:24.115Z,9.60
2019-06-07T01:32:51.698Z,9.60
2019-06-07T01:35:21.409Z,9.60
2019-06-07T01:37:48.871Z,9.60
2019-06-07T01:40:20.066Z,9.60
2019-06-07T01:42:47.324Z,9.50
2019-06-07T01:45:15.185Z,9.60
2019-06-07T01:47:42.686Z,9.60
2019-06-07T01:50:10.510Z,9.60
2019-06-07T01:52:38.089Z,9.60
2019-06-07T01:55:05.936Z,9.50
2019-06-07T01:57:45.420Z,9.60
2019-06-07T02:00:03.532Z,9.60
2019-06-07T02:02:32.272Z,9.60
2019-06-07T02:04:59.909Z,9.60
2019-06-07T02:07:32.178Z,9.60
2019-06-07T02:09:56.972Z,9.60
2019-06-07T02:12:32.522Z,9.60
2019-06-07T02:14:53.822Z,9.70
2019-06-07T02:17:24.406Z,9.70
2019-06-07T02:19:50.755Z,9.70
2019-06-07T02:22:21.316Z,9.60
2019-06-07T02:25:33.889Z,9.60
2019-06-07T02:27:18.526Z,9.60
2019-06-07T02:29:45.983Z,9.60
2019-06-07T02:32:13.435Z,9.60
2019-06-07T02:34:40.956Z,9.60
2019-06-07T02:37:08.472Z,9.70
2019-06-07T02:39:40.242Z,9.70
2019-06-07T02:42:05.387Z,9.70
2019-06-07T02:44:38.536Z,9.80
2019-06-07T02:47:02.363Z,9.80
2019-06-07T02:49:36.245Z,9.80
2019-06-07T02:51:59.146Z,9.90
2019-06-07T02:54:27.454Z,9.90
2019-06-07T02:56:58.992Z,9.90
2019-06-07T02:59:52.779Z,10.00
2019-06-07T03:01:55.021Z,10.00
2019-06-07T03:04:27.182Z,10.10
2019-06-07T03:06:56.349Z,10.10
2019-06-07T03:09:26.219Z,10.10
2019-06-07T03:11:56.220Z,10.20
2019-06-07T03:14:26.006Z,10.20
2019-06-07T03:17:01.760Z,10.20
2019-06-07T03:19:37.898Z,10.20
2019-06-07T03:22:05.166Z,10.20
2019-06-07T03:24:36.251Z,10.30
2019-06-07T03:29:36.561Z,10.30
2019-06-07T03:32:03.676Z,10.40
2019-06-07T03:34:34.214Z,10.40
2019-06-07T03:37:00.500Z,10.50
2019-06-07T03:39:29.290Z,10.50
2019-06-07T03:42:06.226Z,10.60
2019-06-07T03:44:28.633Z,10.70
2019-06-07T03:46:56.064Z,10.80
2019-06-07T03:49:24.036Z,10.80
2019-06-07T03:51:51.536Z,10.80
2019-06-07T03:54:18.960Z,10.80
2019-06-07T03:56:46.445Z,10.90
2019-06-07T03:59:13.886Z,10.90
2019-06-07T04:01:41.441Z,10.90
2019-06-07T04:04:08.933Z,11.00
2019-06-07T04:06:39.479Z,11.00
2019-06-07T04:09:06.673Z,11.00
2019-06-07T04:11:35.133Z,11.00
2019-06-07T04:14:03.754Z,10.90
2019-06-07T04:16:34.560Z,10.80
2019-06-07T04:19:00.689Z,10.80
2019-06-07T04:21:29.754Z,10.70
2019-06-07T04:23:57.607Z,10.70
2019-06-07T04:26:25.320Z,10.60
2019-06-07T04:29:31.475Z,10.60
2019-06-07T04:31:22.638Z,10.60
2019-06-07T04:33:50.099Z,10.60
2019-06-07T04:36:18.172Z,10.60
2019-06-07T04:38:47.053Z,10.60
2019-06-07T04:41:16.236Z,10.60
2019-06-07T04:43:45.818Z,10.80
2019-06-07T04:46:16.773Z,10.80
2019-06-07T04:48:46.040Z,11.00
2019-06-07T04:51:14.103Z,11.10
2019-06-07T04:53:43.352Z,11.30
2019-06-07T04:56:12.293Z,11.40
2019-06-07T04:58:49.138Z,11.60
2019-06-07T05:01:27.305Z,11.80
2019-06-07T05:03:46.523Z,12.00
2019-06-07T05:06:14.158Z,12.10
2019-06-07T05:08:43.558Z,12.30
2019-06-07T05:11:11.262Z,12.40
2019-06-07T05:13:41.438Z,12.40
2019-06-07T05:16:08.247Z,12.60
2019-06-07T05:18:39.642Z,12.70
2019-06-07T05:21:05.112Z,12.80
2019-06-07T05:26:02.111Z,13.00
2019-06-07T05:28:30.035Z,13.10
2019-06-07T05:31:04.638Z,13.20
2019-06-07T05:33:28.348Z,13.30
2019-06-07T05:35:56.046Z,13.40
2019-06-07T05:38:23.526Z,13.60
2019-06-07T05:40:51.744Z,13.70
2019-06-07T05:43:26.852Z,13.80
2019-06-07T05:45:54.395Z,13.90
2019-06-07T05:48:23.261Z,14.00
2019-06-07T05:50:57.061Z,14.10
2019-06-07T05:53:20.273Z,14.20
2019-06-07T05:55:47.943Z,14.30
2019-06-07T05:58:15.498Z,14.40
2019-06-07T06:00:44.576Z,14.60
2019-06-07T06:03:12.555Z,14.70
2019-06-07T06:05:45.767Z,14.90
2019-06-07T06:08:09.580Z,15.00
2019-06-07T06:10:39.630Z,15.10
2019-06-07T06:13:07.594Z,15.30
2019-06-07T06:15:45.320Z,15.40
2019-06-07T06:18:05.292Z,15.50
2019-06-07T06:20:47.703Z,15.50
2019-06-07T06:23:02.384Z,15.50
2019-06-07T06:25:33.184Z,15.60
2019-06-07T06:28:12.426Z,15.60
2019-06-07T06:30:28.932Z,15.80
2019-06-07T06:32:58.540Z,16.00
2019-06-07T06:35:25.774Z,16.00
2019-06-07T06:37:53.619Z,16.10
2019-06-07T06:40:23.311Z,16.30
2019-06-07T06:42:50.798Z,16.50
2019-06-07T06:45:18.427Z,16.60
2019-06-07T06:47:48.836Z,16.70
2019-06-07T06:50:15.872Z,16.90
2019-06-07T06:52:46.099Z,16.90
2019-06-07T06:55:13.171Z,17.00
2019-06-07T06:57:41.809Z,17.10
2019-06-07T07:00:10.209Z,17.20
2019-06-07T07:03:27.033Z,17.40
2019-06-07T07:05:08.937Z,17.40
2019-06-07T07:07:36.708Z,17.60
2019-06-07T07:10:06.622Z,17.70
2019-06-07T07:12:35.492Z,17.90
2019-06-07T07:15:04.507Z,18.00
2019-06-07T07:17:50.814Z,18.10
2019-06-07T07:20:01.700Z,18.20
2019-06-07T07:22:29.488Z,18.20
2019-06-07T07:25:00.165Z,18.10
2019-06-07T07:27:27.785Z,18.10
2019-06-07T07:30:34.258Z,18.00
2019-06-07T07:32:25.857Z,18.20
2019-06-07T07:35:00.009Z,18.20
2019-06-07T07:37:23.028Z,18.40
2019-06-07T07:39:54.263Z,18.60
2019-06-07T07:42:21.723Z,18.80
2019-06-07T07:44:53.275Z,18.80
2019-06-07T07:47:18.986Z,18.90
2019-06-07T07:49:48.360Z,18.80
2019-06-07T07:52:16.091Z,19.00
2019-06-07T07:54:44.278Z,19.10
2019-06-07T07:57:11.877Z,19.10
2019-06-07T07:59:44.034Z,19.30
2019-06-07T08:02:08.812Z,19.50
2019-06-07T08:05:12.873Z,19.60
2019-06-07T08:07:05.986Z,19.80
2019-06-07T08:09:33.545Z,20.00
2019-06-07T08:12:02.661Z,20.10
2019-06-07T08:14:31.318Z,20.20
2019-06-07T08:16:59.295Z,20.40
2019-06-07T08:19:27.215Z,20.60
2019-06-07T08:21:55.688Z,20.70
2019-06-07T08:24:23.312Z,20.90
2019-06-07T08:27:12.510Z,20.90
2019-06-07T08:29:20.170Z,21.10
2019-06-07T08:31:48.306Z,21.20
2019-06-07T08:34:16.141Z,21.40
2019-06-07T08:36:43.697Z,21.40
2019-06-07T08:39:11.234Z,21.60
2019-06-07T08:41:53.497Z,21.80
2019-06-07T08:44:22.770Z,22.00
2019-06-07T08:46:37.903Z,22.10
2019-06-07T08:49:05.514Z,22.00
2019-06-07T08:51:33.122Z,22.00
2019-06-07T08:54:21.088Z,21.80
2019-06-07T08:56:30.302Z,21.90
2019-06-07T08:59:03.170Z,22.10
2019-06-07T09:01:27.453Z,22.10
2019-06-07T09:04:00.177Z,22.20
2019-06-07T09:07:01.888Z,22.40
2019-06-07T09:08:57.765Z,22.40
2019-06-07T09:11:24.775Z,22.60
2019-06-07T09:13:54.528Z,22.60
2019-06-07T09:16:22.164Z,22.70
2019-06-07T09:18:49.675Z,22.80
2019-06-07T09:21:17.276Z,22.80
2019-06-07T09:23:44.794Z,22.80
2019-06-07T09:26:18.270Z,22.90
2019-06-07T09:28:42.484Z,23.10
2019-06-07T09:31:12.490Z,23.30
2019-06-07T09:33:39.777Z,23.50
2019-06-07T09:36:12.347Z,23.90
2019-06-07T09:38:36.956Z,24.10
2019-06-07T09:41:06.170Z,24.20
2019-06-07T09:46:09.684Z,24.40
2019-06-07T09:49:12.261Z,24.40
2019-06-07T09:51:09.767Z,24.60
2019-06-07T09:53:32.053Z,24.80
2019-06-07T09:56:05.658Z,25.00
2019-06-07T09:58:51.074Z,25.20
2019-06-07T10:01:04.467Z,25.20
2019-06-07T10:03:30.146Z,25.20
2019-06-07T10:05:57.971Z,25.20
2019-06-07T10:09:42.410Z,25.30
2019-06-07T10:10:58.458Z,25.50
2019-06-07T10:13:26.030Z,25.40
2019-06-07T10:15:54.738Z,25.60
2019-06-07T10:18:22.238Z,25.80
2019-06-07T10:20:49.810Z,26.00
2019-06-07T10:23:17.272Z,26.10
2019-06-07T10:25:44.869Z,26.40
2019-06-07T10:28:12.380Z,26.50
2019-06-07T10:30:39.969Z,26.60
2019-06-07T10:33:08.580Z,26.90
2019-06-07T10:35:36.404Z,27.00
2019-06-07T10:38:04.585Z,26.90
2019-06-07T10:40:33.408Z,26.50
2019-06-07T10:43:01.261Z,26.30
2019-06-07T10:45:29.010Z,26.50
2019-06-07T10:47:56.598Z,26.70
2019-06-07T10:50:24.276Z,26.50
2019-06-07T10:52:51.870Z,26.40
2019-06-07T10:55:19.453Z,26.20
2019-06-07T10:57:46.988Z,26.40
2019-06-07T11:00:15.419Z,26.70
2019-06-07T11:02:42.978Z,26.80
2019-06-07T11:05:12.285Z,27.00
2019-06-07T11:07:40.411Z,27.30
2019-06-07T11:10:14.988Z,27.50
2019-06-07T11:12:37.742Z,27.50
2019-06-07T11:15:06.623Z,27.30
2019-06-07T11:17:34.438Z,27.00
2019-06-07T11:20:02.239Z,27.10
2019-06-07T11:22:30.025Z,27.20
2019-06-07T11:24:57.619Z,27.30
2019-06-07T11:27:25.135Z,27.40
2019-06-07T11:29:52.651Z,27.30
2019-06-07T11:32:23.045Z,27.50
2019-06-07T11:34:50.555Z,27.50
2019-06-07T11:37:19.149Z,27.60
2019-06-07T11:39:46.726Z,27.80
2019-06-07T11:42:14.284Z,28.00
2019-06-07T11:44:55.749Z,27.90
2019-06-07T11:47:12.466Z,27.90
2019-06-07T11:49:40.276Z,28.10
2019-06-07T11:52:07.758Z,28.40
2019-06-07T11:54:35.296Z,28.60
2019-06-07T11:57:04.170Z,28.70
2019-06-07T11:59:31.755Z,28.60
2019-06-07T12:01:59.222Z,28.50
2019-06-07T12:04:34.524Z,28.50
2019-06-07T12:06:57.285Z,28.60
2019-06-07T12:09:27.969Z,28.80
2019-06-07T12:11:54.262Z,28.90
2019-06-07T12:14:21.826Z,29.00
2019-06-07T12:16:51.361Z,29.10
2019-06-07T12:19:19.802Z,28.90
2019-06-07T12:21:47.573Z,29.00
2019-06-07T12:24:16.154Z,28.90
2019-06-07T12:26:44.240Z,28.90
2019-06-07T12:29:12.814Z,28.90
2019-06-07T12:31:40.537Z,28.70
2019-06-07T12:34:08.023Z,28.80
2019-06-07T12:36:35.631Z,28.90
2019-06-07T12:39:05.717Z,29.10
2019-06-07T12:41:33.398Z,29.30
2019-06-07T12:44:00.882Z,29.10
2019-06-07T12:46:28.772Z,29.00
2019-06-07T12:48:56.291Z,28.90
2019-06-07T12:51:23.829Z,28.80
2019-06-07T12:53:51.303Z,28.60
2019-06-07T12:56:19.804Z,28.60
2019-06-07T12:58:47.327Z,28.40
2019-06-07T13:01:15.948Z,28.30
2019-06-07T13:03:43.565Z,28.60
2019-06-07T13:06:11.535Z,28.60
2019-06-07T13:08:39.084Z,28.70
2019-06-07T13:11:16.095Z,28.70
2019-06-07T13:13:36.164Z,28.60
2019-06-07T13:16:03.843Z,28.80
2019-06-07T13:18:31.604Z,28.90
2019-06-07T13:20:59.088Z,28.90
2019-06-07T13:23:29.005Z,28.80
2019-06-07T13:25:56.761Z,28.80
2019-06-07T13:28:24.736Z,28.70
2019-06-07T13:30:52.414Z,28.80
2019-06-07T13:33:21.516Z,29.00
2019-06-07T13:35:49.406Z,29.10
2019-06-07T13:38:26.355Z,28.90
2019-06-07T13:40:57.423Z,28.80
2019-06-07T13:43:25.762Z,28.80
2019-06-07T13:45:53.421Z,28.90
2019-06-07T13:48:21.179Z,28.70
2019-06-07T13:50:48.821Z,28.70
2019-06-07T13:53:16.385Z,28.60
2019-06-07T13:55:43.953Z,28.70
2019-06-07T13:58:11.607Z,28.80
2019-06-07T14:00:39.104Z,29.00
2019-06-07T14:03:06.714Z,29.00
2019-06-07T14:05:34.223Z,29.10
2019-06-07T14:08:01.676Z,29.00
2019-06-07T14:10:29.625Z,29.10
2019-06-07T14:12:57.190Z,29.00
2019-06-07T14:15:25.186Z,28.90
2019-06-07T14:17:54.024Z,28.80
2019-06-07T14:20:26.664Z,28.90
2019-06-07T14:22:54.277Z,28.90
2019-06-07T14:25:23.054Z,28.90
2019-06-07T14:27:50.766Z,29.10
2019-06-07T14:30:21.804Z,29.10
2019-06-07T14:32:50.545Z,29.10
2019-06-07T14:35:18.578Z,29.00
2019-06-07T14:37:46.547Z,29.00
2019-06-07T14:40:14.671Z,29.20
2019-06-07T14:42:42.263Z,29.20
2019-06-07T14:45:10.439Z,29.10
2019-06-07T14:47:39.017Z,29.20
2019-06-07T14:50:06.869Z,29.20
2019-06-07T14:52:35.122Z,29.20
2019-06-07T14:55:04.286Z,29.40
2019-06-07T14:57:33.353Z,29.30
2019-06-07T15:00:10.408Z,29.30
2019-06-07T15:02:34.382Z,29.30
2019-06-07T15:05:00.337Z,29.30
2019-06-07T15:07:28.658Z,29.20
2019-06-07T15:09:56.434Z,29.20
2019-06-07T15:12:25.345Z,29.20
2019-06-07T15:14:53.526Z,29.30
2019-06-07T15:17:20.982Z,29.40
2019-06-07T15:19:49.609Z,29.50
2019-06-07T15:22:17.265Z,29.40
2019-06-07T15:24:44.926Z,29.40
2019-06-07T15:27:12.528Z,29.40
2019-06-07T15:29:40.032Z,29.40
2019-06-07T15:32:07.539Z,29.30
2019-06-07T15:34:36.339Z,29.40
2019-06-07T15:37:03.974Z,29.30
2019-06-07T15:39:32.573Z,29.30
2019-06-07T15:42:00.299Z,29.30
2019-06-07T15:44:29.094Z,29.30
2019-06-07T15:46:59.006Z,29.50
2019-06-07T15:49:26.504Z,29.60
2019-06-07T15:51:54.142Z,29.80
2019-06-07T15:54:21.853Z,29.90
2019-06-07T15:56:49.450Z,30.00
2019-06-07T15:59:17.053Z,30.00
2019-06-07T16:01:44.673Z,30.00
2019-06-07T16:04:12.270Z,29.90
2019-06-07T16:06:40.582Z,29.60
2019-06-07T16:09:08.253Z,29.50
2019-06-07T16:11:38.912Z,29.50
2019-06-07T16:14:06.640Z,29.50
2019-06-07T16:16:35.027Z,29.60
2019-06-07T16:19:02.742Z,29.60
2019-06-07T16:21:30.241Z,29.60
2019-06-07T16:23:57.927Z,29.60
2019-06-07T16:26:25.507Z,29.60
2019-06-07T16:28:52.951Z,29.60
2019-06-07T16:31:20.403Z,29.60
2019-06-07T16:33:47.915Z,29.50
2019-06-07T16:36:15.330Z,29.40
2019-06-07T16:38:42.906Z,29.30
2019-06-07T16:41:10.348Z,29.20
2019-06-07T16:43:38.555Z,29.20
2019-06-07T16:46:06.260Z,29.20
2019-06-07T16:48:36.858Z,29.20
2019-06-07T16:51:04.353Z,29.30
2019-06-07T16:53:31.903Z,29.40
2019-06-07T16:55:59.386Z,29.60
2019-06-07T16:58:26.909Z,29.70
2019-06-07T17:00:54.462Z,29.60
2019-06-07T17:03:21.998Z,29.50
2019-06-07T17:05:50.578Z,28.80
2019-06-07T17:08:18.514Z,28.30
2019-06-07T17:10:46.413Z,27.70
2019-06-07T17:13:13.997Z,27.00
2019-06-07T17:15:42.686Z,26.30
2019-06-07T17:18:10.390Z,25.60
2019-06-07T17:20:39.016Z,24.90
2019-06-07T17:23:06.675Z,24.30
2019-06-07T17:25:34.323Z,23.70
2019-06-07T17:28:01.862Z,23.40
2019-06-07T17:30:29.670Z,23.10
2019-06-07T17:32:59.429Z,22.90
2019-06-07T17:35:26.787Z,22.60
2019-06-07T17:37:54.284Z,22.40
2019-06-07T17:40:21.952Z,22.30
2019-06-07T17:42:50.900Z,22.10
2019-06-07T17:45:18.807Z,22.00
2019-06-07T17:47:47.695Z,21.90
2019-06-07T17:50:15.580Z,21.70
2019-06-07T17:52:43.791Z,21.20
2019-06-07T17:55:11.974Z,20.70
2019-06-07T17:57:39.704Z,20.30
2019-06-07T18:00:27.661Z,19.80
2019-06-07T18:02:38.060Z,19.60
2019-06-07T18:05:05.807Z,19.40
2019-06-07T18:07:34.519Z,19.20
2019-06-07T18:10:02.511Z,19.10
2019-06-07T18:12:30.435Z,19.00
2019-06-07T18:14:59.131Z,18.80
2019-06-07T18:17:34.561Z,18.70
2019-06-07T18:19:56.280Z,18.50
2019-06-07T18:22:23.897Z,18.40
2019-06-07T18:24:52.712Z,18.20
2019-06-07T18:27:20.551Z,18.10
2019-06-07T18:29:48.584Z,18.00
2019-06-07T18:32:16.239Z,17.90
2019-06-07T18:34:43.725Z,17.80
2019-06-07T18:37:11.366Z,17.70
2019-06-07T18:39:39.068Z,17.60
2019-06-07T18:42:06.711Z,17.60
2019-06-07T18:44:34.220Z,17.40
2019-06-07T18:47:01.699Z,17.40
2019-06-07T18:49:29.380Z,17.20
2019-06-07T18:52:16.456Z,17.10
2019-06-07T18:54:44.021Z,17.00
2019-06-07T18:57:12.451Z,16.90
2019-06-07T18:59:40.191Z,16.90
2019-06-07T19:02:07.840Z,16.80
2019-06-07T19:04:35.550Z,16.70
2019-06-07T19:07:03.283Z,16.70
2019-06-07T19:09:30.877Z,16.70
2019-06-07T19:11:59.034Z,16.60
2019-06-07T19:14:36.600Z,16.60
2019-06-07T19:16:57.557Z,16.50
2019-06-07T19:19:25.336Z,16.50
2019-06-07T19:21:54.007Z,16.50
2019-06-07T19:24:22.189Z,16.50
2019-06-07T19:26:50.549Z,16.50
2019-06-07T19:29:18.257Z,16.50
2019-06-07T19:31:45.866Z,16.50
2019-06-07T19:34:13.439Z,16.40
2019-06-07T19:36:48.716Z,16.40
2019-06-07T19:39:10.664Z,16.40
2019-06-07T19:41:41.274Z,16.40
2019-06-07T19:44:09.045Z,16.40
2019-06-07T19:46:36.622Z,16.40
2019-06-07T19:49:04.581Z,16.40
2019-06-07T19:51:32.150Z,16.30
2019-06-07T19:53:59.741Z,16.30
2019-06-07T19:56:27.417Z,16.30
2019-06-07T19:58:55.543Z,16.30
2019-06-07T20:01:23.280Z,16.20
2019-06-07T20:03:50.826Z,16.10
2019-06-07T20:06:18.505Z,16.10
2019-06-07T20:08:46.233Z,16.20
2019-06-07T20:11:45.638Z,16.20
2019-06-07T20:14:16.394Z,16.20
2019-06-07T20:16:44.099Z,16.10
2019-06-07T20:19:11.809Z,16.10
2019-06-07T20:21:39.402Z,16.10
2019-06-07T20:24:25.947Z,16.00
2019-06-07T20:26:36.370Z,16.00
2019-06-07T20:29:04.116Z,15.90
2019-06-07T20:31:31.901Z,15.90
2019-06-07T20:34:00.601Z,15.90
2019-06-07T20:36:28.345Z,15.80
2019-06-07T20:38:55.966Z,15.80
2019-06-07T20:41:23.564Z,15.80
2019-06-07T20:43:51.018Z,15.80
2019-06-07T20:46:18.645Z,15.80
2019-06-07T20:48:46.369Z,15.80
2019-06-07T20:51:14.019Z,15.80
2019-06-07T20:53:41.617Z,15.80
2019-06-07T20:56:09.358Z,15.90
2019-06-07T20:58:37.025Z,15.90
2019-06-07T21:01:04.858Z,15.90
2019-06-07T21:03:32.396Z,15.90
2019-06-07T21:06:01.268Z,15.90
2019-06-07T21:08:29.007Z,16.00
2019-06-07T21:10:56.619Z,15.90
2019-06-07T21:13:24.277Z,15.90
2019-06-07T21:15:51.951Z,15.90
2019-06-07T21:18:20.202Z,15.90
2019-06-07T21:20:47.931Z,15.90
2019-06-07T21:23:15.490Z,16.00
2019-06-07T21:25:42.952Z,16.00
2019-06-07T21:28:11.444Z,16.10
2019-06-07T21:30:39.237Z,16.10
2019-06-07T21:33:07.645Z,16.10
2019-06-07T21:35:35.434Z,16.10
2019-06-07T21:38:03.929Z,16.10
2019-06-07T21:40:31.799Z,16.00
2019-06-07T21:42:59.680Z,15.90
2019-06-07T21:45:27.340Z,15.70
2019-06-07T21:47:54.904Z,15.70
2019-06-07T21:50:22.563Z,15.70
2019-06-07T21:52:50.203Z,15.70
2019-06-07T21:55:19.027Z,15.70
2019-06-07T21:57:46.702Z,15.80
2019-06-07T22:00:16.829Z,15.90
2019-06-07T22:02:46.437Z,15.90
2019-06-07T22:05:14.442Z,15.80
2019-06-07T22:07:42.114Z,15.80
2019-06-07T22:10:10.117Z,15.80
2019-06-07T22:12:38.239Z,15.70
2019-06-07T22:15:24.701Z,15.70
2019-06-07T22:17:36.051Z,15.70
2019-06-07T22:20:06.376Z,15.60
2019-06-07T22:22:34.206Z,15.60
2019-06-07T22:25:01.731Z,15.50
2019-06-07T22:27:29.509Z,15.50
2019-06-07T22:29:57.035Z,15.50
2019-06-07T22:32:24.720Z,15.50
2019-06-07T22:34:52.353Z,15.50
2019-06-07T22:37:23.433Z,15.40
2019-06-07T22:39:49.356Z,15.40
2019-06-07T22:42:16.919Z,15.30
2019-06-07T22:44:44.509Z,15.30
2019-06-07T22:47:12.124Z,15.30
2019-06-07T22:49:39.934Z,15.30
2019-06-07T22:52:09.381Z,15.20
2019-06-07T22:54:36.798Z,15.10
2019-06-07T22:57:11.892Z,15.00
2019-06-07T22:59:39.646Z,14.90
2019-06-07T23:02:08.338Z,14.90
2019-06-07T23:04:36.971Z,14.80
2019-06-07T23:07:04.473Z,14.80
2019-06-07T23:09:32.434Z,14.80
2019-06-07T23:12:00.114Z,14.70
2019-06-07T23:14:28.073Z,14.70
2019-06-07T23:16:56.355Z,14.70
2019-06-07T23:19:24.195Z,14.60
2019-06-07T23:21:51.946Z,14.50
2019-06-07T23:24:20.141Z,14.50
2019-06-07T23:26:50.128Z,14.50
2019-06-07T23:29:18.639Z,14.50
2019-06-07T23:31:46.313Z,14.50
2019-06-07T23:34:14.706Z,14.50
2019-06-07T23:36:43.187Z,14.50
2019-06-07T23:39:10.923Z,14.50
2019-06-07T23:41:39.792Z,14.60
2019-06-07T23:44:07.363Z,14.60
2019-06-07T23:46:34.858Z,14.60
2019-06-07T23:49:02.351Z,14.60
2019-06-07T23:51:29.845Z,14.60
2019-06-07T23:53:57.307Z,14.60
2019-06-07T23:56:24.785Z,14.60
2019-06-07T23:58:52.448Z,14.60
